Genesee Depot, WI (53127)

11:42 PM CDT on August 30, 2016 (GMT -0500)
GENESEE DEPOT, WI 53127 | | Change Station

Elev 931 ft 42.97 °N, 88.36 °W | Updated 16 seconds ago

Clear
Clear
68.3 °F
Feels Like 68.3 °F
N
0.0
Wind Variable Wind from NW
Gusts 0.0 mph

Today
High -- | Low -- °F
--% Chance of Precip.
Yesterday
High -- | Low -- °F
Precip. -- in
Pressure 30.08 in
Visibility 10.0 miles
Clouds Clear
Dew Point 68 °F
Humidity 98%
Rainfall 0.07 in
Snow Depth Not available.
6:16 AM 7:30 PM
Waning Crescent, 1% visible
METAR KUES 310435Z AUTO 00000KT 10SM CLR 18/18 A3008 RMK AO2
Pressure 30.08 in
Visibility 10.0 miles
Clouds Clear
Dew Point 68 °F
Humidity 98%
Rainfall 0.07 in
Snow Depth Not available.
6:16 AM 7:30 PM
Waning Crescent, 1% visible
METAR KUES 310435Z AUTO 00000KT 10SM CLR 18/18 A3008 RMK AO2

10-Day Weather Forecast

Almanac

Astronomy

Aug. 30, 2016 Rise Set
Actual Time
Civil Twilight
Nautical Twilight
Astronomical Twilight
Moon
Length of Visible Light
Length of Day
Tomorrow will be .
, % of the Moon is Illuminated

Today's Extremes

State Highs State Lows

Community

WunderPhotos

Upload Photos

1,936,039 photos uploaded!

WunderBlog® & News

Nearby

Air Quality

  Air Quality AQ Index Pollutant
Not available.

Snow Depth

Station Depth Elevation

Earthquake Activity

City Distance Mag. Time & Date
Minimum magnitude displayed is 2.5.

Coastal Water Temperatures

Place Temperature

Stations

Nearby Weather Stations

Station Location Temp. Windchill Dew Point Humidity Wind Precip. Elev Updated Type
                   

Watches & Warnings

There are currently no watches in effect.